sensor_id;sensor_type;location;lat;lon;timestamp;temperature;humidity
36322;DHT22;23564;48.290;11.460;2022-09-09T00:02:18;13.60;99.90
36322;DHT22;23564;48.290;11.460;2022-09-09T00:07:33;13.60;99.90
36322;DHT22;23564;48.290;11.460;2022-09-09T00:12:51;13.50;99.90
36322;DHT22;23564;48.290;11.460;2022-09-09T00:15:33;13.50;99.90
36322;DHT22;23564;48.290;11.460;2022-09-09T00:18:23;13.40;99.90
36322;DHT22;23564;48.290;11.460;2022-09-09T00:23:32;13.40;99.90
36322;DHT22;23564;48.290;11.460;2022-09-09T00:26:22;13.40;99.90
36322;DHT22;23564;48.290;11.460;2022-09-09T00:29:17;13.40;99.90
36322;DHT22;23564;48.290;11.460;2022-09-09T00:31:44;13.40;99.90
36322;DHT22;23564;48.290;11.460;2022-09-09T00:34:14;13.40;99.90
36322;DHT22;23564;48.290;11.460;2022-09-09T00:36:42;13.40;99.90
36322;DHT22;23564;48.290;11.460;2022-09-09T00:39:32;13.40;99.90
36322;DHT22;23564;48.290;11.460;2022-09-09T00:44:39;13.40;99.90
36322;DHT22;23564;48.290;11.460;2022-09-09T00:50:14;13.40;99.90
36322;DHT22;23564;48.290;11.460;2022-09-09T00:52:59;13.40;99.90
36322;DHT22;23564;48.290;11.460;2022-09-09T00:57:58;13.30;99.90
36322;DHT22;23564;48.290;11.460;2022-09-09T01:00:30;13.30;99.90
36322;DHT22;23564;48.290;11.460;2022-09-09T01:03:26;13.40;99.90
36322;DHT22;23564;48.290;11.460;2022-09-09T01:06:31;13.40;99.90
36322;DHT22;23564;48.290;11.460;2022-09-09T01:09:07;13.40;99.90
36322;DHT22;23564;48.290;11.460;2022-09-09T01:17:19;13.30;99.90
36322;DHT22;23564;48.290;11.460;2022-09-09T01:20:15;13.40;99.90
36322;DHT22;23564;48.290;11.460;2022-09-09T01:27:51;13.40;99.90
36322;DHT22;23564;48.290;11.460;2022-09-09T01:30:19;13.40;99.90
36322;DHT22;23564;48.290;11.460;2022-09-09T01:32:48;13.40;99.90
36322;DHT22;23564;48.290;11.460;2022-09-09T01:35:33;13.40;99.90
36322;DHT22;23564;48.290;11.460;2022-09-09T01:38:00;13.40;99.90
36322;DHT22;23564;48.290;11.460;2022-09-09T01:40:26;13.40;99.90
36322;DHT22;23564;48.290;11.460;2022-09-09T01:42:52;13.40;99.90
36322;DHT22;23564;48.290;11.460;2022-09-09T01:45:18;13.40;99.90
36322;DHT22;23564;48.290;11.460;2022-09-09T01:47:45;13.40;99.90
36322;DHT22;23564;48.290;11.460;2022-09-09T01:50:13;13.40;99.90
36322;DHT22;23564;48.290;11.460;2022-09-09T01:52:42;13.50;99.90
36322;DHT22;23564;48.290;11.460;2022-09-09T01:55:09;13.50;99.90
36322;DHT22;23564;48.290;11.460;2022-09-09T02:00:45;13.50;99.90
36322;DHT22;23564;48.290;11.460;2022-09-09T02:03:25;13.50;99.90
36322;DHT22;23564;48.290;11.460;2022-09-09T02:08:42;13.60;99.90
36322;DHT22;23564;48.290;11.460;2022-09-09T02:11:19;13.60;99.90
36322;DHT22;23564;48.290;11.460;2022-09-09T02:13:48;13.60;99.90
36322;DHT22;23564;48.290;11.460;2022-09-09T02:19:33;13.60;99.90
36322;DHT22;23564;48.290;11.460;2022-09-09T02:22:01;13.60;99.90
36322;DHT22;23564;48.290;11.460;2022-09-09T02:24:32;13.60;99.90
36322;DHT22;23564;48.290;11.460;2022-09-09T02:27:01;13.60;99.90
36322;DHT22;23564;48.290;11.460;2022-09-09T02:29:33;13.60;99.90
36322;DHT22;23564;48.290;11.460;2022-09-09T02:32:02;13.60;99.90
36322;DHT22;23564;48.290;11.460;2022-09-09T02:34:32;13.50;99.90
36322;DHT22;23564;48.290;11.460;2022-09-09T02:36:59;13.50;99.90
36322;DHT22;23564;48.290;11.460;2022-09-09T02:39:26;13.40;99.90
36322;DHT22;23564;48.290;11.460;2022-09-09T02:41:51;13.40;99.90
36322;DHT22;23564;48.290;11.460;2022-09-09T02:44:18;13.30;99.90
36322;DHT22;23564;48.290;11.460;2022-09-09T02:49:55;13.30;99.90
36322;DHT22;23564;48.290;11.460;2022-09-09T02:58:04;13.20;99.90
36322;DHT22;23564;48.290;11.460;2022-09-09T03:00:31;13.20;99.90
36322;DHT22;23564;48.290;11.460;2022-09-09T03:02:58;13.20;99.90
36322;DHT22;23564;48.290;11.460;2022-09-09T03:05:23;13.30;99.90
36322;DHT22;23564;48.290;11.460;2022-09-09T03:07:49;13.30;1.00
36322;DHT22;23564;48.290;11.460;2022-09-09T03:10:16;13.40;1.00
36322;DHT22;23564;48.290;11.460;2022-09-09T03:12:42;13.40;1.00
36322;DHT22;23564;48.290;11.460;2022-09-09T03:15:09;13.40;99.90
36322;DHT22;23564;48.290;11.460;2022-09-09T03:17:35;13.60;1.00
36322;DHT22;23564;48.290;11.460;2022-09-09T03:20:02;13.60;1.00
36322;DHT22;23564;48.290;11.460;2022-09-09T03:22:28;13.70;1.00
36322;DHT22;23564;48.290;11.460;2022-09-09T03:24:53;13.70;1.00
36322;DHT22;23564;48.290;11.460;2022-09-09T03:27:19;13.70;99.90
36322;DHT22;23564;48.290;11.460;2022-09-09T03:29:45;13.70;99.90
36322;DHT22;23564;48.290;11.460;2022-09-09T03:32:11;13.80;99.90
36322;DHT22;23564;48.290;11.460;2022-09-09T03:34:37;13.80;99.90
36322;DHT22;23564;48.290;11.460;2022-09-09T03:37:06;13.80;99.90
36322;DHT22;23564;48.290;11.460;2022-09-09T03:39:31;13.90;99.90
36322;DHT22;23564;48.290;11.460;2022-09-09T03:41:57;13.90;99.90
36322;DHT22;23564;48.290;11.460;2022-09-09T03:44:22;13.90;99.90
36322;DHT22;23564;48.290;11.460;2022-09-09T03:46:48;13.90;1.00
36322;DHT22;23564;48.290;11.460;2022-09-09T03:49:14;13.80;99.90
36322;DHT22;23564;48.290;11.460;2022-09-09T03:51:40;13.80;99.90
36322;DHT22;23564;48.290;11.460;2022-09-09T03:54:07;13.90;99.90
36322;DHT22;23564;48.290;11.460;2022-09-09T03:56:34;13.80;99.90
36322;DHT22;23564;48.290;11.460;2022-09-09T03:59:00;13.80;99.90
36322;DHT22;23564;48.290;11.460;2022-09-09T04:01:26;13.80;99.90
36322;DHT22;23564;48.290;11.460;2022-09-09T04:03:52;13.80;99.90
36322;DHT22;23564;48.290;11.460;2022-09-09T04:06:18;13.80;1.00
36322;DHT22;23564;48.290;11.460;2022-09-09T04:08:45;13.70;99.90
36322;DHT22;23564;48.290;11.460;2022-09-09T04:11:14;13.80;99.90
36322;DHT22;23564;48.290;11.460;2022-09-09T04:13:40;13.80;99.90
36322;DHT22;23564;48.290;11.460;2022-09-09T04:16:09;13.80;99.90
36322;DHT22;23564;48.290;11.460;2022-09-09T04:18:35;13.80;99.90
36322;DHT22;23564;48.290;11.460;2022-09-09T04:21:01;13.80;99.90
36322;DHT22;23564;48.290;11.460;2022-09-09T04:23:28;13.90;99.90
36322;DHT22;23564;48.290;11.460;2022-09-09T04:25:58;13.90;99.90
36322;DHT22;23564;48.290;11.460;2022-09-09T04:28:26;13.90;99.90
36322;DHT22;23564;48.290;11.460;2022-09-09T04:30:52;14.00;99.90
36322;DHT22;23564;48.290;11.460;2022-09-09T04:33:18;13.90;99.90
36322;DHT22;23564;48.290;11.460;2022-09-09T04:35:45;14.00;99.90
36322;DHT22;23564;48.290;11.460;2022-09-09T04:38:11;14.00;99.90
36322;DHT22;23564;48.290;11.460;2022-09-09T04:40:37;14.10;99.90
36322;DHT22;23564;48.290;11.460;2022-09-09T04:43:04;14.10;99.90
36322;DHT22;23564;48.290;11.460;2022-09-09T04:45:30;14.10;99.90
36322;DHT22;23564;48.290;11.460;2022-09-09T04:47:56;14.20;99.90
36322;DHT22;23564;48.290;11.460;2022-09-09T04:50:22;14.20;99.90
36322;DHT22;23564;48.290;11.460;2022-09-09T04:52:48;14.30;99.90
36322;DHT22;23564;48.290;11.460;2022-09-09T04:55:14;14.30;99.90
36322;DHT22;23564;48.290;11.460;2022-09-09T04:57:40;14.30;99.90
36322;DHT22;23564;48.290;11.460;2022-09-09T05:00:06;14.30;99.90
36322;DHT22;23564;48.290;11.460;2022-09-09T05:02:32;14.30;99.90
36322;DHT22;23564;48.290;11.460;2022-09-09T05:04:58;14.40;99.90
36322;DHT22;23564;48.290;11.460;2022-09-09T05:07:24;14.40;99.90
36322;DHT22;23564;48.290;11.460;2022-09-09T05:09:52;14.40;99.90
36322;DHT22;23564;48.290;11.460;2022-09-09T05:12:17;14.40;1.00
36322;DHT22;23564;48.290;11.460;2022-09-09T05:14:43;14.40;1.00
36322;DHT22;23564;48.290;11.460;2022-09-09T05:17:10;14.40;1.00
36322;DHT22;23564;48.290;11.460;2022-09-09T05:19:36;14.50;99.90
36322;DHT22;23564;48.290;11.460;2022-09-09T05:22:02;14.40;1.00
36322;DHT22;23564;48.290;11.460;2022-09-09T05:24:28;14.50;1.00
36322;DHT22;23564;48.290;11.460;2022-09-09T05:26:53;14.50;1.00
36322;DHT22;23564;48.290;11.460;2022-09-09T05:29:19;14.50;1.00
36322;DHT22;23564;48.290;11.460;2022-09-09T05:31:45;14.50;1.00
36322;DHT22;23564;48.290;11.460;2022-09-09T05:34:12;14.60;1.00
36322;DHT22;23564;48.290;11.460;2022-09-09T05:36:37;14.60;1.00
36322;DHT22;23564;48.290;11.460;2022-09-09T05:39:03;14.70;1.00
36322;DHT22;23564;48.290;11.460;2022-09-09T05:41:29;14.70;1.00
36322;DHT22;23564;48.290;11.460;2022-09-09T05:43:55;14.90;1.00
36322;DHT22;23564;48.290;11.460;2022-09-09T05:46:22;14.90;1.00
36322;DHT22;23564;48.290;11.460;2022-09-09T05:48:50;15.00;1.00
36322;DHT22;23564;48.290;11.460;2022-09-09T05:51:25;15.10;1.00
36322;DHT22;23564;48.290;11.460;2022-09-09T05:53:52;15.20;99.90
36322;DHT22;23564;48.290;11.460;2022-09-09T05:56:23;15.20;99.90
36322;DHT22;23564;48.290;11.460;2022-09-09T05:58:51;15.20;99.90
36322;DHT22;23564;48.290;11.460;2022-09-09T06:01:21;15.30;99.90
36322;DHT22;23564;48.290;11.460;2022-09-09T06:03:48;15.30;99.90
36322;DHT22;23564;48.290;11.460;2022-09-09T06:06:36;15.40;99.90
36322;DHT22;23564;48.290;11.460;2022-09-09T06:09:03;15.40;99.90
36322;DHT22;23564;48.290;11.460;2022-09-09T06:11:34;15.40;99.90
36322;DHT22;23564;48.290;11.460;2022-09-09T06:14:01;15.50;99.90
36322;DHT22;23564;48.290;11.460;2022-09-09T06:16:28;15.50;99.90
36322;DHT22;23564;48.290;11.460;2022-09-09T06:18:55;15.50;99.90
36322;DHT22;23564;48.290;11.460;2022-09-09T06:21:22;15.50;99.90
36322;DHT22;23564;48.290;11.460;2022-09-09T06:23:49;15.50;99.90
36322;DHT22;23564;48.290;11.460;2022-09-09T06:26:19;15.40;99.90
36322;DHT22;23564;48.290;11.460;2022-09-09T06:28:46;15.40;99.90
36322;DHT22;23564;48.290;11.460;2022-09-09T06:31:14;15.50;99.90
36322;DHT22;23564;48.290;11.460;2022-09-09T06:33:42;15.50;99.90
36322;DHT22;23564;48.290;11.460;2022-09-09T06:36:14;15.60;99.90
36322;DHT22;23564;48.290;11.460;2022-09-09T06:38:41;15.70;99.90
36322;DHT22;23564;48.290;11.460;2022-09-09T06:41:09;15.80;99.90
36322;DHT22;23564;48.290;11.460;2022-09-09T06:43:35;15.80;99.90
36322;DHT22;23564;48.290;11.460;2022-09-09T06:46:12;15.90;99.90
36322;DHT22;23564;48.290;11.460;2022-09-09T06:48:39;15.90;99.90
36322;DHT22;23564;48.290;11.460;2022-09-09T06:51:17;15.90;99.90
36322;DHT22;23564;48.290;11.460;2022-09-09T06:53:45;15.90;99.90
36322;DHT22;23564;48.290;11.460;2022-09-09T06:58:40;15.90;99.90
36322;DHT22;23564;48.290;11.460;2022-09-09T07:01:11;15.80;99.90
36322;DHT22;23564;48.290;11.460;2022-09-09T07:03:38;15.60;99.90
36322;DHT22;23564;48.290;11.460;2022-09-09T07:06:04;15.50;1.00
36322;DHT22;23564;48.290;11.460;2022-09-09T07:08:30;15.50;1.00
36322;DHT22;23564;48.290;11.460;2022-09-09T07:11:05;15.40;1.00
36322;DHT22;23564;48.290;11.460;2022-09-09T07:13:31;15.40;1.00
36322;DHT22;23564;48.290;11.460;2022-09-09T07:16:04;15.40;1.00
36322;DHT22;23564;48.290;11.460;2022-09-09T07:18:31;15.20;1.00
36322;DHT22;23564;48.290;11.460;2022-09-09T07:20:56;15.20;1.00
36322;DHT22;23564;48.290;11.460;2022-09-09T07:23:23;15.20;1.00
36322;DHT22;23564;48.290;11.460;2022-09-09T07:25:49;15.20;1.00
36322;DHT22;23564;48.290;11.460;2022-09-09T07:28:16;15.20;1.00
36322;DHT22;23564;48.290;11.460;2022-09-09T07:30:42;15.20;1.00
36322;DHT22;23564;48.290;11.460;2022-09-09T07:33:09;15.30;1.00
36322;DHT22;23564;48.290;11.460;2022-09-09T07:35:37;15.40;1.00
36322;DHT22;23564;48.290;11.460;2022-09-09T07:38:03;15.60;1.00
36322;DHT22;23564;48.290;11.460;2022-09-09T07:40:32;15.60;1.00
36322;DHT22;23564;48.290;11.460;2022-09-09T07:42:58;15.70;1.00
36322;DHT22;23564;48.290;11.460;2022-09-09T07:45:24;15.90;1.00
36322;DHT22;23564;48.290;11.460;2022-09-09T07:47:50;16.10;1.00
36322;DHT22;23564;48.290;11.460;2022-09-09T07:50:16;16.20;1.00
36322;DHT22;23564;48.290;11.460;2022-09-09T07:52:41;16.40;1.00
36322;DHT22;23564;48.290;11.460;2022-09-09T07:55:07;16.50;1.00
36322;DHT22;23564;48.290;11.460;2022-09-09T07:57:32;16.60;1.00
36322;DHT22;23564;48.290;11.460;2022-09-09T07:59:58;16.70;1.00
36322;DHT22;23564;48.290;11.460;2022-09-09T08:02:24;16.80;1.00
36322;DHT22;23564;48.290;11.460;2022-09-09T08:04:50;16.90;99.90
36322;DHT22;23564;48.290;11.460;2022-09-09T08:07:17;16.80;99.90
36322;DHT22;23564;48.290;11.460;2022-09-09T08:09:42;16.80;99.90
36322;DHT22;23564;48.290;11.460;2022-09-09T08:12:09;16.80;99.90
36322;DHT22;23564;48.290;11.460;2022-09-09T08:14:38;16.80;1.00
36322;DHT22;23564;48.290;11.460;2022-09-09T08:17:04;16.70;1.00
36322;DHT22;23564;48.290;11.460;2022-09-09T08:19:30;16.70;1.00
36322;DHT22;23564;48.290;11.460;2022-09-09T08:21:56;16.80;1.00
36322;DHT22;23564;48.290;11.460;2022-09-09T08:24:21;16.90;1.00
36322;DHT22;23564;48.290;11.460;2022-09-09T08:26:49;16.90;1.00
36322;DHT22;23564;48.290;11.460;2022-09-09T08:29:16;17.00;1.00
36322;DHT22;23564;48.290;11.460;2022-09-09T08:31:44;17.20;1.00
36322;DHT22;23564;48.290;11.460;2022-09-09T08:34:10;17.30;99.90
36322;DHT22;23564;48.290;11.460;2022-09-09T08:36:38;17.40;99.90
36322;DHT22;23564;48.290;11.460;2022-09-09T08:39:05;17.50;99.90
36322;DHT22;23564;48.290;11.460;2022-09-09T08:44:14;17.60;99.90
36322;DHT22;23564;48.290;11.460;2022-09-09T08:52:39;17.90;99.90
36322;DHT22;23564;48.290;11.460;2022-09-09T08:57:52;17.90;99.90
36322;DHT22;23564;48.290;11.460;2022-09-09T09:00:19;17.90;99.90
36322;DHT22;23564;48.290;11.460;2022-09-09T09:03:12;18.00;99.90
36322;DHT22;23564;48.290;11.460;2022-09-09T09:05:58;18.00;99.90
36322;DHT22;23564;48.290;11.460;2022-09-09T09:08:30;18.30;99.90
36322;DHT22;23564;48.290;11.460;2022-09-09T09:11:03;18.50;99.90
36322;DHT22;23564;48.290;11.460;2022-09-09T09:13:58;18.70;99.90
36322;DHT22;23564;48.290;11.460;2022-09-09T09:16:45;18.90;99.90
36322;DHT22;23564;48.290;11.460;2022-09-09T09:19:15;19.10;99.90
36322;DHT22;23564;48.290;11.460;2022-09-09T09:21:44;19.20;99.90
36322;DHT22;23564;48.290;11.460;2022-09-09T09:24:20;19.20;99.90
36322;DHT22;23564;48.290;11.460;2022-09-09T09:26:47;19.20;99.90
36322;DHT22;23564;48.290;11.460;2022-09-09T09:29:16;19.30;99.90
36322;DHT22;23564;48.290;11.460;2022-09-09T09:31:51;19.30;99.90
36322;DHT22;23564;48.290;11.460;2022-09-09T09:34:17;19.30;99.90
36322;DHT22;23564;48.290;11.460;2022-09-09T09:36:43;19.30;99.90
36322;DHT22;23564;48.290;11.460;2022-09-09T09:39:22;19.30;99.90
36322;DHT22;23564;48.290;11.460;2022-09-09T09:41:48;19.20;99.90
36322;DHT22;23564;48.290;11.460;2022-09-09T09:44:29;19.20;99.90
36322;DHT22;23564;48.290;11.460;2022-09-09T09:47:15;19.20;36.40
36322;DHT22;23564;48.290;11.460;2022-09-09T09:49:57;19.20;89.70
36322;DHT22;23564;48.290;11.460;2022-09-09T09:52:29;19.30;99.90
36322;DHT22;23564;48.290;11.460;2022-09-09T09:54:57;19.20;99.90
36322;DHT22;23564;48.290;11.460;2022-09-09T09:57:29;19.10;99.90
36322;DHT22;23564;48.290;11.460;2022-09-09T10:00:15;19.20;99.90
36322;DHT22;23564;48.290;11.460;2022-09-09T10:02:44;19.20;99.90
36322;DHT22;23564;48.290;11.460;2022-09-09T10:05:15;19.20;99.90
36322;DHT22;23564;48.290;11.460;2022-09-09T10:07:41;19.30;99.90
36322;DHT22;23564;48.290;11.460;2022-09-09T10:10:24;19.30;1.00
36322;DHT22;23564;48.290;11.460;2022-09-09T10:13:08;19.40;1.00
36322;DHT22;23564;48.290;11.460;2022-09-09T10:18:54;19.60;1.00
36322;DHT22;23564;48.290;11.460;2022-09-09T10:22:10;19.70;1.00
36322;DHT22;23564;48.290;11.460;2022-09-09T10:25:10;19.90;99.90
36322;DHT22;23564;48.290;11.460;2022-09-09T10:31:01;20.00;46.90
36322;DHT22;23564;48.290;11.460;2022-09-09T10:34:00;20.10;99.90
36322;DHT22;23564;48.290;11.460;2022-09-09T10:36:28;20.30;1.00
36322;DHT22;23564;48.290;11.460;2022-09-09T10:39:33;20.50;99.90
36322;DHT22;23564;48.290;11.460;2022-09-09T10:42:06;20.60;99.90
36322;DHT22;23564;48.290;11.460;2022-09-09T10:47:34;20.70;1.00
36322;DHT22;23564;48.290;11.460;2022-09-09T10:53:02;20.70;1.00
36322;DHT22;23564;48.290;11.460;2022-09-09T10:55:32;20.80;99.90
36322;DHT22;23564;48.290;11.460;2022-09-09T10:58:03;20.70;99.90
36322;DHT22;23564;48.290;11.460;2022-09-09T11:00:37;20.80;1.00
36322;DHT22;23564;48.290;11.460;2022-09-09T11:03:04;20.90;99.90
36322;DHT22;23564;48.290;11.460;2022-09-09T11:05:42;21.00;1.00
36322;DHT22;23564;48.290;11.460;2022-09-09T11:08:14;21.10;1.00
36322;DHT22;23564;48.290;11.460;2022-09-09T11:10:50;21.20;99.90
36322;DHT22;23564;48.290;11.460;2022-09-09T11:16:05;21.20;99.90
36322;DHT22;23564;48.290;11.460;2022-09-09T11:18:39;21.00;99.90
36322;DHT22;23564;48.290;11.460;2022-09-09T11:21:21;21.00;99.90
36322;DHT22;23564;48.290;11.460;2022-09-09T11:24:56;21.00;99.90
36322;DHT22;23564;48.290;11.460;2022-09-09T11:27:00;21.00;99.90
36322;DHT22;23564;48.290;11.460;2022-09-09T11:32:13;21.10;99.90
36322;DHT22;23564;48.290;11.460;2022-09-09T11:35:02;21.20;99.90
36322;DHT22;23564;48.290;11.460;2022-09-09T11:37:40;21.30;99.90
36322;DHT22;23564;48.290;11.460;2022-09-09T11:40:20;21.30;99.90
36322;DHT22;23564;48.290;11.460;2022-09-09T11:42:48;21.40;99.90
36322;DHT22;23564;48.290;11.460;2022-09-09T11:45:24;21.40;99.90
36322;DHT22;23564;48.290;11.460;2022-09-09T11:48:00;21.50;99.90
36322;DHT22;23564;48.290;11.460;2022-09-09T11:53:15;21.50;99.90
36322;DHT22;23564;48.290;11.460;2022-09-09T11:55:42;21.40;99.90
36322;DHT22;23564;48.290;11.460;2022-09-09T12:00:46;21.20;99.90
36322;DHT22;23564;48.290;11.460;2022-09-09T12:03:54;21.10;99.90
36322;DHT22;23564;48.290;11.460;2022-09-09T12:06:19;21.00;99.90
36322;DHT22;23564;48.290;11.460;2022-09-09T12:08:53;20.90;99.90
36322;DHT22;23564;48.290;11.460;2022-09-09T12:11:29;20.80;99.90
36322;DHT22;23564;48.290;11.460;2022-09-09T12:13:58;20.80;99.90
36322;DHT22;23564;48.290;11.460;2022-09-09T12:16:34;20.90;99.90
36322;DHT22;23564;48.290;11.460;2022-09-09T12:19:05;21.00;99.90
36322;DHT22;23564;48.290;11.460;2022-09-09T12:21:48;21.10;99.90
36322;DHT22;23564;48.290;11.460;2022-09-09T12:24:25;21.30;99.90
36322;DHT22;23564;48.290;11.460;2022-09-09T12:27:20;21.40;99.90
36322;DHT22;23564;48.290;11.460;2022-09-09T12:32:25;21.60;87.20
36322;DHT22;23564;48.290;11.460;2022-09-09T12:34:54;21.60;1.00
36322;DHT22;23564;48.290;11.460;2022-09-09T12:37:31;21.40;24.30
36322;DHT22;23564;48.290;11.460;2022-09-09T12:39:59;21.30;1.00
36322;DHT22;23564;48.290;11.460;2022-09-09T12:42:27;21.20;1.00
36322;DHT22;23564;48.290;11.460;2022-09-09T12:45:00;21.20;99.90
36322;DHT22;23564;48.290;11.460;2022-09-09T12:49:55;21.10;99.90
36322;DHT22;23564;48.290;11.460;2022-09-09T12:52:31;21.10;99.90
36322;DHT22;23564;48.290;11.460;2022-09-09T12:55:01;21.10;99.90
36322;DHT22;23564;48.290;11.460;2022-09-09T12:57:34;21.20;99.90
36322;DHT22;23564;48.290;11.460;2022-09-09T13:00:27;21.20;99.90
36322;DHT22;23564;48.290;11.460;2022-09-09T13:02:58;21.30;99.90
36322;DHT22;23564;48.290;11.460;2022-09-09T13:05:25;21.30;99.90
36322;DHT22;23564;48.290;11.460;2022-09-09T13:07:52;21.30;99.90
36322;DHT22;23564;48.290;11.460;2022-09-09T13:10:29;21.20;1.00
36322;DHT22;23564;48.290;11.460;2022-09-09T13:12:56;21.20;99.90
36322;DHT22;23564;48.290;11.460;2022-09-09T13:15:26;21.20;1.00
36322;DHT22;23564;48.290;11.460;2022-09-09T13:17:59;21.30;1.00
36322;DHT22;23564;48.290;11.460;2022-09-09T13:20:27;21.30;1.00
36322;DHT22;23564;48.290;11.460;2022-09-09T13:22:54;21.30;1.00
36322;DHT22;23564;48.290;11.460;2022-09-09T13:25:24;21.20;1.00
36322;DHT22;23564;48.290;11.460;2022-09-09T13:28:05;21.30;1.00
36322;DHT22;23564;48.290;11.460;2022-09-09T13:30:35;21.20;5.30
36322;DHT22;23564;48.290;11.460;2022-09-09T13:35:35;21.30;69.10
36322;DHT22;23564;48.290;11.460;2022-09-09T13:38:14;21.30;99.90
36322;DHT22;23564;48.290;11.460;2022-09-09T13:40:39;21.30;99.90
36322;DHT22;23564;48.290;11.460;2022-09-09T13:43:14;21.40;98.40
36322;DHT22;23564;48.290;11.460;2022-09-09T13:45:53;21.40;99.90
36322;DHT22;23564;48.290;11.460;2022-09-09T13:48:19;21.40;27.70
36322;DHT22;23564;48.290;11.460;2022-09-09T13:51:03;21.40;1.00
36322;DHT22;23564;48.290;11.460;2022-09-09T13:53:32;21.40;1.00
36322;DHT22;23564;48.290;11.460;2022-09-09T13:55:58;21.20;33.10
36322;DHT22;23564;48.290;11.460;2022-09-09T13:58:25;21.20;1.00
36322;DHT22;23564;48.290;11.460;2022-09-09T14:00:52;21.20;27.90
36322;DHT22;23564;48.290;11.460;2022-09-09T14:03:18;21.20;99.90
36322;DHT22;23564;48.290;11.460;2022-09-09T14:05:44;21.20;57.80
36322;DHT22;23564;48.290;11.460;2022-09-09T14:08:24;21.20;99.90
36322;DHT22;23564;48.290;11.460;2022-09-09T14:10:50;21.20;92.10
36322;DHT22;23564;48.290;11.460;2022-09-09T14:13:16;21.20;1.00
36322;DHT22;23564;48.290;11.460;2022-09-09T14:15:41;21.20;1.00
36322;DHT22;23564;48.290;11.460;2022-09-09T14:18:11;21.10;1.00
36322;DHT22;23564;48.290;11.460;2022-09-09T14:20:37;20.90;1.00
36322;DHT22;23564;48.290;11.460;2022-09-09T14:23:02;20.70;99.90
36322;DHT22;23564;48.290;11.460;2022-09-09T14:25:28;20.60;47.90
36322;DHT22;23564;48.290;11.460;2022-09-09T14:27:54;20.50;78.70
36322;DHT22;23564;48.290;11.460;2022-09-09T14:30:19;20.40;99.90
36322;DHT22;23564;48.290;11.460;2022-09-09T14:32:45;20.30;99.90
36322;DHT22;23564;48.290;11.460;2022-09-09T14:35:10;20.20;99.90
36322;DHT22;23564;48.290;11.460;2022-09-09T14:37:37;20.20;99.90
36322;DHT22;23564;48.290;11.460;2022-09-09T14:40:04;20.30;99.90
36322;DHT22;23564;48.290;11.460;2022-09-09T14:42:30;20.50;99.90
36322;DHT22;23564;48.290;11.460;2022-09-09T14:44:55;20.50;99.90
36322;DHT22;23564;48.290;11.460;2022-09-09T14:47:21;20.50;99.90
36322;DHT22;23564;48.290;11.460;2022-09-09T14:49:47;20.60;99.90
36322;DHT22;23564;48.290;11.460;2022-09-09T14:52:14;20.50;99.90
36322;DHT22;23564;48.290;11.460;2022-09-09T14:54:40;20.40;99.90
36322;DHT22;23564;48.290;11.460;2022-09-09T14:57:05;20.40;99.90
36322;DHT22;23564;48.290;11.460;2022-09-09T14:59:31;20.40;99.90
36322;DHT22;23564;48.290;11.460;2022-09-09T15:01:56;20.30;99.90
36322;DHT22;23564;48.290;11.460;2022-09-09T15:04:22;20.20;3.00
36322;DHT22;23564;48.290;11.460;2022-09-09T15:06:48;20.10;99.60
36322;DHT22;23564;48.290;11.460;2022-09-09T15:09:15;20.10;16.30
36322;DHT22;23564;48.290;11.460;2022-09-09T15:11:41;20.20;85.30
36322;DHT22;23564;48.290;11.460;2022-09-09T15:14:08;20.30;93.00
36322;DHT22;23564;48.290;11.460;2022-09-09T15:16:34;20.60;64.70
36322;DHT22;23564;48.290;11.460;2022-09-09T15:19:01;20.70;7.20
36322;DHT22;23564;48.290;11.460;2022-09-09T15:21:32;20.70;93.90
36322;DHT22;23564;48.290;11.460;2022-09-09T15:23:58;20.80;14.90
36322;DHT22;23564;48.290;11.460;2022-09-09T15:26:24;20.80;1.00
36322;DHT22;23564;48.290;11.460;2022-09-09T15:28:51;20.80;28.60
36322;DHT22;23564;48.290;11.460;2022-09-09T15:31:19;20.80;1.00
36322;DHT22;23564;48.290;11.460;2022-09-09T15:33:54;20.90;1.00
36322;DHT22;23564;48.290;11.460;2022-09-09T15:36:36;20.90;1.00
36322;DHT22;23564;48.290;11.460;2022-09-09T15:39:04;21.00;1.00
36322;DHT22;23564;48.290;11.460;2022-09-09T15:41:30;20.90;1.00
36322;DHT22;23564;48.290;11.460;2022-09-09T15:43:57;20.70;1.00
36322;DHT22;23564;48.290;11.460;2022-09-09T15:46:34;20.40;1.00
36322;DHT22;23564;48.290;11.460;2022-09-09T15:51:41;20.00;1.00
36322;DHT22;23564;48.290;11.460;2022-09-09T15:54:09;19.80;1.00
36322;DHT22;23564;48.290;11.460;2022-09-09T15:56:35;19.50;14.60
36322;DHT22;23564;48.290;11.460;2022-09-09T15:59:02;19.30;1.00
36322;DHT22;23564;48.290;11.460;2022-09-09T16:01:29;19.10;1.00
36322;DHT22;23564;48.290;11.460;2022-09-09T16:03:57;18.90;12.40
36322;DHT22;23564;48.290;11.460;2022-09-09T16:06:24;18.70;94.00
36322;DHT22;23564;48.290;11.460;2022-09-09T16:08:52;18.60;99.90
36322;DHT22;23564;48.290;11.460;2022-09-09T16:11:23;18.50;99.90
36322;DHT22;23564;48.290;11.460;2022-09-09T16:13:50;18.50;99.90
36322;DHT22;23564;48.290;11.460;2022-09-09T16:16:19;18.70;1.00
36322;DHT22;23564;48.290;11.460;2022-09-09T16:18:52;19.00;1.00
36322;DHT22;23564;48.290;11.460;2022-09-09T16:21:32;19.50;99.90
36322;DHT22;23564;48.290;11.460;2022-09-09T16:24:00;19.90;99.90
36322;DHT22;23564;48.290;11.460;2022-09-09T16:26:28;20.10;99.90
36322;DHT22;23564;48.290;11.460;2022-09-09T16:28:55;20.10;99.90
36322;DHT22;23564;48.290;11.460;2022-09-09T16:31:22;20.00;99.90
36322;DHT22;23564;48.290;11.460;2022-09-09T16:33:49;19.70;99.90
36322;DHT22;23564;48.290;11.460;2022-09-09T16:36:18;19.50;92.60
36322;DHT22;23564;48.290;11.460;2022-09-09T16:38:44;19.20;94.90
36322;DHT22;23564;48.290;11.460;2022-09-09T16:41:11;19.00;99.90
36322;DHT22;23564;48.290;11.460;2022-09-09T16:43:37;18.80;99.90
36322;DHT22;23564;48.290;11.460;2022-09-09T16:46:09;18.60;99.90
36322;DHT22;23564;48.290;11.460;2022-09-09T16:48:36;18.40;99.90
36322;DHT22;23564;48.290;11.460;2022-09-09T16:51:07;18.30;99.90
36322;DHT22;23564;48.290;11.460;2022-09-09T16:53:34;18.10;99.90
36322;DHT22;23564;48.290;11.460;2022-09-09T16:56:07;18.00;99.90
36322;DHT22;23564;48.290;11.460;2022-09-09T16:58:33;17.90;99.90
36322;DHT22;23564;48.290;11.460;2022-09-09T17:01:02;17.80;99.90
36322;DHT22;23564;48.290;11.460;2022-09-09T17:03:29;17.70;99.90
36322;DHT22;23564;48.290;11.460;2022-09-09T17:05:54;17.60;99.90
36322;DHT22;23564;48.290;11.460;2022-09-09T17:08:20;17.50;1.00
36322;DHT22;23564;48.290;11.460;2022-09-09T17:10:46;17.40;99.90
36322;DHT22;23564;48.290;11.460;2022-09-09T17:13:13;17.20;1.00